Have a Safe July 4th! 

Flight Track Log - Related Links

Times and Time Zones

All times are in EDT time to prevent confusion due to time zone crossing. See the EJA727 flight status page for this flight to view local times or setup timezone preferences in your user account.

Time Position Orientation Groundspeed Altitude Reporting Facility
EDT Latitude Longitude Course Direction KTS MPH feet Rate Location/Type
Tue 05:24:06 PM 35.7392 -84.0797 227° Southwest 222 255 5,900  Level Atlanta Center
Tue 05:25:06 PM 35.6828 -84.1539 227° Southwest 260 299 9,600 3,200 Climbing Atlanta Center
Tue 05:26:06 PM 35.6181 -84.2431 228° Southwest 312 359 12,300 2,900 Climbing Atlanta Center
Tue 05:27:06 PM 35.5469 -84.3450 229° Southwest 362 417 15,400 3,000 Climbing Atlanta Center
Tue 05:28:06 PM 35.4756 -84.4467 229° Southwest 391 450 18,300 2,950 Climbing Atlanta Center
Tue 05:29:06 PM 35.4000 -84.5483 228° Southwest 402 463 21,300 2,400 Climbing Atlanta Center
Tue 05:30:06 PM 35.3244 -84.6547 229° Southwest 408 470 23,100 1,700 Climbing Atlanta Center
Tue 05:31:06 PM 35.2425 -84.7661 228° Southwest 429 494 24,700 1,600 Climbing Atlanta Center
Tue 05:32:06 PM 35.1561 -84.8847 228° Southwest 450 518 26,300 1,650 Climbing Atlanta Center
Tue 05:33:06 PM 35.0719 -85.0006 228° Southwest 457 526 28,000 1,600 Climbing Atlanta Center
Tue 05:34:06 PM 34.9853 -85.1186 228° Southwest 469 540 29,500 1,200 Climbing Atlanta Center
Tue 05:35:06 PM 34.8986 -85.2392 229° Southwest 474 545 30,400 1,000 Climbing Atlanta Center
Tue 05:36:06 PM 34.8119 -85.3619 229° Southwest 480 552 31,500 1,000 Climbing Atlanta Center
Tue 05:37:06 PM 34.7164 -85.4917 228° Southwest 480 552 32,400 950 Climbing Atlanta Center
Tue 05:38:06 PM 34.6275 -85.6114 228° Southwest 480 552 33,400 1,000 Climbing Atlanta Center
Tue 05:39:06 PM 34.5403 -85.7308 228° Southwest 480 552 34,400 1,000 Climbing Atlanta Center
Tue 05:40:06 PM 34.4636 -85.8328 228° Southwest 480 552 35,400 1,000 Climbing Atlanta Center
Tue 05:41:06 PM 34.3783 -85.9492 228° Southwest 474 545 36,400 1,000 Climbing Atlanta Center
Tue 05:42:06 PM 34.2931 -86.0678 229° Southwest 479 551 37,400 800 Climbing Atlanta Center
Tue 05:43:06 PM 34.2056 -86.1839 228° Southwest 479 551 38,000 300 Climbing Atlanta Center
Tue 05:44:06 PM 34.1114 -86.3069 227° Southwest 474 545 38,000  Level Atlanta Center
Tue 05:45:06 PM 34.0258 -86.4250 229° Southwest 474 545 38,000  Level Atlanta Center
Tue 05:46:06 PM 33.9358 -86.5425 227° Southwest 474 545 38,000  Level Atlanta Center
Tue 05:47:06 PM 33.8456 -86.6625 228° Southwest 479 551 38,000  Level Atlanta Center
Tue 05:48:06 PM 33.7575 -86.7772 227° Southwest 479 551 38,000  Level Atlanta Center
Tue 05:49:06 PM 33.6692 -86.8967 228° Southwest 479 551 38,000  Level Atlanta Center
Tue 05:50:06 PM 33.5828 -87.0186 230° Southwest 479 551 38,000  Level Atlanta Center
Tue 05:51:06 PM 33.5047 -87.1453 234° Southwest 479 551 38,000  Level Atlanta Center
Tue 05:52:06 PM 33.4222 -87.2694 231° Southwest 479 551 38,000  Level Atlanta Center
Tue 05:54:20 PM 33.2392 -87.5456 232° Southwest 474 545 38,000  Level Memphis Center
Tue 05:55:19 PM 33.1561 -87.6650 230° Southwest 474 545 38,000  Level Memphis Center
Tue 05:56:20 PM 33.0669 -87.7792 227° Southwest 474 545 38,000  Level Memphis Center
Tue 05:57:19 PM 32.9600 -87.8689 215° Southwest 469 540 38,000  Level Memphis Center
Tue 05:58:19 PM 32.8597 -87.9608 218° Southwest 469 540 38,000  Level Memphis Center
Tue 05:59:19 PM 32.7547 -88.0500 216° Southwest 469 540 38,000  Level Memphis Center
Tue 06:00:19 PM 32.6542 -88.1442 218° Southwest 474 545 38,000  Level Memphis Center
Tue 06:01:20 PM 32.5494 -88.2353 216° Southwest 474 545 38,000  Level Memphis Center
Tue 06:02:19 PM 32.4569 -88.3236 219° Southwest 475 547 38,000  Level Memphis Center
Tue 06:03:19 PM 32.3561 -88.4144 217° Southwest 475 547 38,000  Level Memphis Center
Tue 06:04:19 PM 32.2742 -88.5269 229° Southwest 468 539 38,000  Level Memphis Center
Tue 06:05:19 PM 32.1947 -88.6536 233° Southwest 453 521 38,000 -500 Level Memphis Center
Tue 06:06:19 PM 32.1169 -88.7778 234° Southwest 463 533 37,000 -1,300 Descending Memphis Center
Tue 06:07:19 PM 32.0411 -88.9017 234° Southwest 469 540 35,400 -1,568 Descending Memphis Center
Tue 06:09:38 PM 31.8697 -89.1725 233° Southwest 474 545 31,800 -1,552 Descending Houston Center
Tue 06:10:40 PM 31.7908 -89.2978 233° Southwest 479 551 30,200 -1,548 Descending Houston Center
Tue 06:11:42 PM 31.7097 -89.4258 233° Southwest 488 562 28,600 -1,548 Descending Houston Center
Tue 06:12:44 PM 31.6092 -89.5464 226° Southwest 506 582 27,000 -1,742 Descending Houston Center
Tue 06:13:46 PM 31.4817 -89.6689 219° Southwest 500 575 25,000 -1,440 Descending Houston Center
Tue 06:14:49 PM 31.3667 -89.7517 212° Southwest 491 565 24,000 -864 Descending Houston Center
Tue 06:15:51 PM 31.2506 -89.8294 210° Southwest 485 558 23,200 -1,355 Descending Houston Center
Tue 06:16:53 PM 31.1378 -89.9039 209° Southwest 473 544 21,200 -1,935 Descending Houston Center
Tue 06:17:55 PM 31.0244 -89.9650 205° Southwest 450 518 19,200 -1,887 Descending Houston Center
Tue 06:18:57 PM 30.9192 -90.0167 203° Southwest 419 482 17,300 -2,081 Descending Houston Center
Tue 06:19:59 PM 30.7956 -90.0767 203° Southwest 405 466 14,900 -2,129 Descending Houston Center
Tue 06:21:01 PM 30.6978 -90.1244 203° Southwest 389 448 12,900 -1,790 Descending Houston Center
Tue 06:22:03 PM 30.6006 -90.1372 186° South 366 421 11,200 -1,548 Descending Houston Center
Tue 06:23:05 PM 30.5147 -90.1389 181° South 320 368 9,700 -1,597 Descending Houston Center
Tue 06:24:07 PM 30.4186 -90.1411 181° South 295 339 7,900 -1,584 Descending Houston Center
Tue 06:25:10 PM 30.3392 -90.1406 180° South 290 334 6,400 -1,392 Descending Houston Center
Tue 06:26:12 PM 30.2625 -90.1419 181° South 283 326 5,000 -1,403 Descending Houston Center
Tue 06:27:14 PM 30.1878 -90.1406 179° South 277 319 3,500 -1,210 Descending Houston Center
Tue 06:28:16 PM 30.1200 -90.1400 180° South 262 302 2,500 -774 Descending Houston Center
Tue 06:29:18 PM 30.0497 -90.1381 179° South 233 268 1,900 -532 Descending Houston Center
Tue 06:30:20 PM 30.0083 -90.0983 140° Southeast 209 241 1,400 -339 Descending Houston Center
Tue 06:31:22 PM 29.9883 -90.0553 118° Southeast 181 208 1,200 -391 Descending Houston Center
Tue 06:31:52 PM 29.9961 -90.0297 71° East 158 182 800 -677 Descending Houston Center
Tue 06:32:24 PM 30.0142 -90.0306 358° North 162 186 500 -319 Descending Houston Center
Tue 06:33:26 PM 30.0525 -90.0322 358° North 157 181 300 -194 Descending Houston Center

Login

Don't have an account? Register now (free) for customized features, flight alerts, and more!